• Join FlightAware (Why Join?)
  • Login
  • US Flag 
02:47AM EDT


 

Airport Tracker/Info


-or-


 

Live Flight TrackerFlight Track Log ✈ MWT44 ✈ 14-Aug-2013 ✈ KSTP - KMML

Flight Track Log - Related Links

Times and Time Zones

All times are in EDT time to prevent confusion due to time zone crossing. See the MWT44 flight status page for this flight to view local times or setup timezone preferences in your user account.

Time Position Orientation Groundspeed Altitude Reporting Facility
EDT Latitude Longitude Course Direction KTS MPH feet Rate Location/Type
08:09PM 44.9969 -93.0856 290° West 233 268 4,000  Level Minneapolis Center
08:10PM 44.9272 -93.1458 211° Southwest 245 282 4,100 480 Climbing Minneapolis Center
08:11PM 44.8742 -93.1958 214° Southwest 231 266 5,100 480 Climbing Minneapolis Center
08:12PM 44.8181 -93.2489 214° Southwest 245 282 5,100 120 Level Minneapolis Center
08:13PM 44.8442 -93.5668 257° West  Level FlightAware Approximate
08:13PM 44.7803 -93.3189 233° Southwest 245 282 5,400  Level Minneapolis Center
08:14PM 44.7686 -93.4147 260° West 207 238 8,000 1,200 Climbing Minneapolis Center
08:15PM 44.7572 -93.5056 260° West 241 277 8,000  Level Minneapolis Center
08:16PM 44.7453 -93.6036 260° West 253 291 8,000  Level Minneapolis Center
08:17PM 44.7336 -93.7011 260° West 255 293 8,000  Level Minneapolis Center
08:18PM 44.7211 -93.7986 260° West 254 292 8,000  Level Minneapolis Center
08:19PM 44.7067 -93.9158 260° West 254 292 8,000  Level Minneapolis Center
08:20PM 44.6944 -94.0122 260° West 252 290 8,000  Level Minneapolis Center
08:21PM 44.6825 -94.1075 260° West 250 288 8,000  Level Minneapolis Center
08:22PM 44.6706 -94.2025 260° West 247 284 8,000  Level Minneapolis Center
08:23PM 44.6578 -94.2969 259° West 246 283 8,000  Level Minneapolis Center
08:24PM 44.6442 -94.4092 260° West 243 280 8,000  Level Minneapolis Center
08:25PM 44.6314 -94.5031 259° West 245 282 8,000  Level Minneapolis Center
08:26PM 44.6194 -94.5947 260° West 239 275 8,000  Level Minneapolis Center
08:28PM 44.6075 -94.6958 261° West 238 274 8,000  Level Minneapolis Center
08:29PM 44.5950 -94.7889 259° West 242 278 8,000  Level Minneapolis Center
08:30PM 44.5822 -94.8808 259° West 241 277 8,000  Level Minneapolis Center
08:31PM 44.5689 -94.9714 258° West 239 275 8,000 -360 Level Minneapolis Center
08:32PM 44.5572 -95.0653 260° West 243 280 7,300 -840 Descending Minneapolis Center
08:33PM 44.5436 -95.1644 259° West 254 292 6,300 -660 Descending Minneapolis Center
08:34PM 44.5292 -95.2803 260° West 254 292 6,000 -180 Descending Minneapolis Center
08:35PM 44.5158 -95.3722 259° West 245 282 6,000 -180 Level Minneapolis Center
08:36PM 44.5033 -95.4642 259° West 242 278 5,700 -300 Descending Minneapolis Center
08:38PM 44.4799 -95.6007 254° West  Level FlightAware Approximate
08:45PM 44.4500 -95.8167 270° West  Level FlightAware Approximate